sensor_id;sensor_type;location;lat;lon;timestamp;P1;P2;P0
49064;PMS5003;34876;51.464;-0.150;2023-02-04T00:00:32;0;0;
49064;PMS5003;34876;51.464;-0.150;2023-02-04T00:03:00;0;0;
49064;PMS5003;34876;51.464;-0.150;2023-02-04T00:12:08;3;2;
49064;PMS5003;34876;51.464;-0.150;2023-02-04T00:19:48;3;2;
49064;PMS5003;34876;51.464;-0.150;2023-02-04T00:26:50;3;3;
49064;PMS5003;34876;51.464;-0.150;2023-02-04T00:33:55;3;2;
49064;PMS5003;34876;51.464;-0.150;2023-02-04T00:42:00;3;2;
49064;PMS5003;34876;51.464;-0.150;2023-02-04T00:48:24;3;3;
49064;PMS5003;34876;51.464;-0.150;2023-02-04T00:56:00;3;2;
49064;PMS5003;34876;51.464;-0.150;2023-02-04T01:03:41;16;16;
49064;PMS5003;34876;51.464;-0.150;2023-02-04T01:06:09;15;15;
49064;PMS5003;34876;51.464;-0.150;2023-02-04T01:08:40;18;16;
49064;PMS5003;34876;51.464;-0.150;2023-02-04T01:11:10;15;15;
49064;PMS5003;34876;51.464;-0.150;2023-02-04T01:13:40;16;14;
49064;PMS5003;34876;51.464;-0.150;2023-02-04T01:16:10;15;13;
49064;PMS5003;34876;51.464;-0.150;2023-02-04T01:18:40;16;15;
49064;PMS5003;34876;51.464;-0.150;2023-02-04T01:21:09;16;14;
49064;PMS5003;34876;51.464;-0.150;2023-02-04T01:23:38;16;16;
49064;PMS5003;34876;51.464;-0.150;2023-02-04T01:26:07;16;15;
49064;PMS5003;34876;51.464;-0.150;2023-02-04T01:28:38;14;12;
49064;PMS5003;34876;51.464;-0.150;2023-02-04T01:31:07;16;16;
49064;PMS5003;34876;51.464;-0.150;2023-02-04T01:33:36;15;12;
49064;PMS5003;34876;51.464;-0.150;2023-02-04T01:36:06;18;15;
49064;PMS5003;34876;51.464;-0.150;2023-02-04T01:38:35;12;12;
49064;PMS5003;34876;51.464;-0.150;2023-02-04T01:41:05;13;13;
49064;PMS5003;34876;51.464;-0.150;2023-02-04T01:43:35;14;12;
49064;PMS5003;34876;51.464;-0.150;2023-02-04T01:46:05;15;15;
49064;PMS5003;34876;51.464;-0.150;2023-02-04T01:48:35;16;13;
49064;PMS5003;34876;51.464;-0.150;2023-02-04T01:51:06;14;12;
49064;PMS5003;34876;51.464;-0.150;2023-02-04T01:53:37;14;13;
49064;PMS5003;34876;51.464;-0.150;2023-02-04T01:56:13;16;16;
49064;PMS5003;34876;51.464;-0.150;2023-02-04T01:58:50;12;12;
49064;PMS5003;34876;51.464;-0.150;2023-02-04T02:01:37;12;11;
49064;PMS5003;34876;51.464;-0.150;2023-02-04T02:04:08;16;13;
49064;PMS5003;34876;51.464;-0.150;2023-02-04T02:06:39;13;13;
49064;PMS5003;34876;51.464;-0.150;2023-02-04T02:09:11;14;13;
49064;PMS5003;34876;51.464;-0.150;2023-02-04T02:11:40;15;14;
49064;PMS5003;34876;51.464;-0.150;2023-02-04T02:14:09;15;15;
49064;PMS5003;34876;51.464;-0.150;2023-02-04T02:16:40;10;10;
49064;PMS5003;34876;51.464;-0.150;2023-02-04T02:19:09;14;14;
49064;PMS5003;34876;51.464;-0.150;2023-02-04T02:21:44;15;15;
49064;PMS5003;34876;51.464;-0.150;2023-02-04T02:24:26;12;12;
49064;PMS5003;34876;51.464;-0.150;2023-02-04T02:26:58;15;14;
49064;PMS5003;34876;51.464;-0.150;2023-02-04T02:29:30;12;12;
49064;PMS5003;34876;51.464;-0.150;2023-02-04T02:31:59;17;14;
49064;PMS5003;34876;51.464;-0.150;2023-02-04T02:34:30;11;11;
49064;PMS5003;34876;51.464;-0.150;2023-02-04T02:37:00;14;12;
49064;PMS5003;34876;51.464;-0.150;2023-02-04T02:39:31;10;9;
49064;PMS5003;34876;51.464;-0.150;2023-02-04T02:42:00;14;12;
49064;PMS5003;34876;51.464;-0.150;2023-02-04T02:44:30;16;15;
49064;PMS5003;34876;51.464;-0.150;2023-02-04T02:47:01;15;13;
49064;PMS5003;34876;51.464;-0.150;2023-02-04T02:49:30;15;13;
49064;PMS5003;34876;51.464;-0.150;2023-02-04T02:52:00;12;12;
49064;PMS5003;34876;51.464;-0.150;2023-02-04T02:54:29;13;11;
49064;PMS5003;34876;51.464;-0.150;2023-02-04T02:56:59;13;13;
49064;PMS5003;34876;51.464;-0.150;2023-02-04T02:59:28;13;12;
49064;PMS5003;34876;51.464;-0.150;2023-02-04T03:01:58;11;11;
49064;PMS5003;34876;51.464;-0.150;2023-02-04T03:04:30;12;12;
49064;PMS5003;34876;51.464;-0.150;2023-02-04T03:07:03;14;14;
49064;PMS5003;34876;51.464;-0.150;2023-02-04T03:09:33;12;12;
49064;PMS5003;34876;51.464;-0.150;2023-02-04T03:12:02;14;13;
49064;PMS5003;34876;51.464;-0.150;2023-02-04T03:14:33;13;13;
49064;PMS5003;34876;51.464;-0.150;2023-02-04T03:17:03;15;13;
49064;PMS5003;34876;51.464;-0.150;2023-02-04T03:19:36;12;12;
49064;PMS5003;34876;51.464;-0.150;2023-02-04T03:22:06;12;12;
49064;PMS5003;34876;51.464;-0.150;2023-02-04T03:24:35;13;13;
49064;PMS5003;34876;51.464;-0.150;2023-02-04T03:27:05;12;12;
49064;PMS5003;34876;51.464;-0.150;2023-02-04T03:29:39;13;12;
49064;PMS5003;34876;51.464;-0.150;2023-02-04T03:32:09;11;11;
49064;PMS5003;34876;51.464;-0.150;2023-02-04T03:34:38;13;13;
49064;PMS5003;34876;51.464;-0.150;2023-02-04T03:37:07;13;12;
49064;PMS5003;34876;51.464;-0.150;2023-02-04T03:39:37;12;12;
49064;PMS5003;34876;51.464;-0.150;2023-02-04T03:42:06;12;11;
49064;PMS5003;34876;51.464;-0.150;2023-02-04T03:44:35;16;14;
49064;PMS5003;34876;51.464;-0.150;2023-02-04T03:47:05;11;11;
49064;PMS5003;34876;51.464;-0.150;2023-02-04T03:49:35;10;10;
49064;PMS5003;34876;51.464;-0.150;2023-02-04T03:52:04;12;12;
49064;PMS5003;34876;51.464;-0.150;2023-02-04T03:54:33;12;12;
49064;PMS5003;34876;51.464;-0.150;2023-02-04T03:57:02;10;10;
49064;PMS5003;34876;51.464;-0.150;2023-02-04T03:59:32;14;14;
49064;PMS5003;34876;51.464;-0.150;2023-02-04T04:02:01;10;10;
49064;PMS5003;34876;51.464;-0.150;2023-02-04T04:04:29;11;11;
49064;PMS5003;34876;51.464;-0.150;2023-02-04T04:06:59;12;12;
49064;PMS5003;34876;51.464;-0.150;2023-02-04T04:09:28;14;13;
49064;PMS5003;34876;51.464;-0.150;2023-02-04T04:11:58;11;11;
49064;PMS5003;34876;51.464;-0.150;2023-02-04T04:14:28;14;14;
49064;PMS5003;34876;51.464;-0.150;2023-02-04T04:16:57;12;12;
49064;PMS5003;34876;51.464;-0.150;2023-02-04T04:19:26;13;13;
49064;PMS5003;34876;51.464;-0.150;2023-02-04T04:21:55;11;9;
49064;PMS5003;34876;51.464;-0.150;2023-02-04T04:24:24;11;11;
49064;PMS5003;34876;51.464;-0.150;2023-02-04T04:26:53;12;12;
49064;PMS5003;34876;51.464;-0.150;2023-02-04T04:29:22;11;9;
49064;PMS5003;34876;51.464;-0.150;2023-02-04T04:31:52;14;12;
49064;PMS5003;34876;51.464;-0.150;2023-02-04T04:34:20;11;11;
49064;PMS5003;34876;51.464;-0.150;2023-02-04T04:36:50;10;10;
49064;PMS5003;34876;51.464;-0.150;2023-02-04T04:39:19;12;12;
49064;PMS5003;34876;51.464;-0.150;2023-02-04T04:41:48;16;14;
49064;PMS5003;34876;51.464;-0.150;2023-02-04T04:44:17;12;10;
49064;PMS5003;34876;51.464;-0.150;2023-02-04T04:46:47;12;12;
49064;PMS5003;34876;51.464;-0.150;2023-02-04T04:49:17;16;12;
49064;PMS5003;34876;51.464;-0.150;2023-02-04T04:51:47;14;13;
49064;PMS5003;34876;51.464;-0.150;2023-02-04T04:54:17;12;11;
49064;PMS5003;34876;51.464;-0.150;2023-02-04T04:56:46;14;11;
49064;PMS5003;34876;51.464;-0.150;2023-02-04T04:59:15;13;11;
49064;PMS5003;34876;51.464;-0.150;2023-02-04T05:01:45;14;12;
49064;PMS5003;34876;51.464;-0.150;2023-02-04T05:04:14;11;11;
49064;PMS5003;34876;51.464;-0.150;2023-02-04T05:06:44;13;11;
49064;PMS5003;34876;51.464;-0.150;2023-02-04T05:09:13;13;11;
49064;PMS5003;34876;51.464;-0.150;2023-02-04T05:11:42;14;14;
49064;PMS5003;34876;51.464;-0.150;2023-02-04T05:14:11;12;11;
49064;PMS5003;34876;51.464;-0.150;2023-02-04T05:16:40;12;12;
49064;PMS5003;34876;51.464;-0.150;2023-02-04T05:19:09;9;9;
49064;PMS5003;34876;51.464;-0.150;2023-02-04T05:21:38;10;10;
49064;PMS5003;34876;51.464;-0.150;2023-02-04T05:24:07;13;12;
49064;PMS5003;34876;51.464;-0.150;2023-02-04T05:26:36;14;12;
49064;PMS5003;34876;51.464;-0.150;2023-02-04T05:29:05;10;10;
49064;PMS5003;34876;51.464;-0.150;2023-02-04T05:31:33;11;10;
49064;PMS5003;34876;51.464;-0.150;2023-02-04T05:34:03;11;11;
49064;PMS5003;34876;51.464;-0.150;2023-02-04T05:36:33;13;10;
49064;PMS5003;34876;51.464;-0.150;2023-02-04T05:39:02;9;9;
49064;PMS5003;34876;51.464;-0.150;2023-02-04T05:41:31;12;12;
49064;PMS5003;34876;51.464;-0.150;2023-02-04T05:44:00;14;13;
49064;PMS5003;34876;51.464;-0.150;2023-02-04T05:46:30;12;12;
49064;PMS5003;34876;51.464;-0.150;2023-02-04T05:48:59;15;15;
49064;PMS5003;34876;51.464;-0.150;2023-02-04T05:51:34;8;8;
49064;PMS5003;34876;51.464;-0.150;2023-02-04T05:54:03;12;10;
49064;PMS5003;34876;51.464;-0.150;2023-02-04T05:56:32;11;11;
49064;PMS5003;34876;51.464;-0.150;2023-02-04T05:59:01;9;9;
49064;PMS5003;34876;51.464;-0.150;2023-02-04T06:01:30;10;10;
49064;PMS5003;34876;51.464;-0.150;2023-02-04T06:04:00;12;9;
49064;PMS5003;34876;51.464;-0.150;2023-02-04T06:06:30;14;11;
49064;PMS5003;34876;51.464;-0.150;2023-02-04T06:08:59;13;12;
49064;PMS5003;34876;51.464;-0.150;2023-02-04T06:11:29;13;11;
49064;PMS5003;34876;51.464;-0.150;2023-02-04T06:13:58;11;11;
49064;PMS5003;34876;51.464;-0.150;2023-02-04T06:16:27;14;12;
49064;PMS5003;34876;51.464;-0.150;2023-02-04T06:18:56;10;10;
49064;PMS5003;34876;51.464;-0.150;2023-02-04T06:21:26;14;14;
49064;PMS5003;34876;51.464;-0.150;2023-02-04T06:23:55;9;9;
49064;PMS5003;34876;51.464;-0.150;2023-02-04T06:26:24;11;10;
49064;PMS5003;34876;51.464;-0.150;2023-02-04T06:28:53;12;12;
49064;PMS5003;34876;51.464;-0.150;2023-02-04T06:31:22;10;10;
49064;PMS5003;34876;51.464;-0.150;2023-02-04T06:33:50;12;12;
49064;PMS5003;34876;51.464;-0.150;2023-02-04T06:36:20;11;11;
49064;PMS5003;34876;51.464;-0.150;2023-02-04T06:38:49;9;9;
49064;PMS5003;34876;51.464;-0.150;2023-02-04T06:41:17;9;9;
49064;PMS5003;34876;51.464;-0.150;2023-02-04T06:43:47;11;11;
49064;PMS5003;34876;51.464;-0.150;2023-02-04T06:46:16;10;10;
49064;PMS5003;34876;51.464;-0.150;2023-02-04T06:48:45;10;10;
49064;PMS5003;34876;51.464;-0.150;2023-02-04T06:51:13;12;11;
49064;PMS5003;34876;51.464;-0.150;2023-02-04T06:53:42;10;10;
49064;PMS5003;34876;51.464;-0.150;2023-02-04T06:56:11;11;9;
49064;PMS5003;34876;51.464;-0.150;2023-02-04T06:58:40;7;7;
49064;PMS5003;34876;51.464;-0.150;2023-02-04T07:01:09;12;11;
49064;PMS5003;34876;51.464;-0.150;2023-02-04T07:03:38;11;10;
49064;PMS5003;34876;51.464;-0.150;2023-02-04T07:06:07;10;10;
49064;PMS5003;34876;51.464;-0.150;2023-02-04T07:08:35;9;9;
49064;PMS5003;34876;51.464;-0.150;2023-02-04T07:11:05;9;9;
49064;PMS5003;34876;51.464;-0.150;2023-02-04T07:13:34;12;12;
49064;PMS5003;34876;51.464;-0.150;2023-02-04T07:16:03;9;9;
49064;PMS5003;34876;51.464;-0.150;2023-02-04T07:18:34;11;9;
49064;PMS5003;34876;51.464;-0.150;2023-02-04T07:21:03;13;11;
49064;PMS5003;34876;51.464;-0.150;2023-02-04T07:23:32;11;9;
49064;PMS5003;34876;51.464;-0.150;2023-02-04T07:26:02;8;8;
49064;PMS5003;34876;51.464;-0.150;2023-02-04T07:28:32;10;10;
49064;PMS5003;34876;51.464;-0.150;2023-02-04T07:31:03;10;10;
49064;PMS5003;34876;51.464;-0.150;2023-02-04T07:33:32;10;10;
49064;PMS5003;34876;51.464;-0.150;2023-02-04T07:36:01;8;8;
49064;PMS5003;34876;51.464;-0.150;2023-02-04T07:38:30;10;9;
49064;PMS5003;34876;51.464;-0.150;2023-02-04T07:41:00;9;8;
49064;PMS5003;34876;51.464;-0.150;2023-02-04T07:43:29;13;12;
49064;PMS5003;34876;51.464;-0.150;2023-02-04T07:45:58;10;10;
49064;PMS5003;34876;51.464;-0.150;2023-02-04T07:48:27;9;9;
49064;PMS5003;34876;51.464;-0.150;2023-02-04T07:51:01;10;9;
49064;PMS5003;34876;51.464;-0.150;2023-02-04T07:53:30;8;8;
49064;PMS5003;34876;51.464;-0.150;2023-02-04T07:55:59;7;7;
49064;PMS5003;34876;51.464;-0.150;2023-02-04T07:58:28;9;9;
49064;PMS5003;34876;51.464;-0.150;2023-02-04T08:00:58;8;7;
49064;PMS5003;34876;51.464;-0.150;2023-02-04T08:03:27;11;11;
49064;PMS5003;34876;51.464;-0.150;2023-02-04T08:05:56;9;9;
49064;PMS5003;34876;51.464;-0.150;2023-02-04T08:08:25;9;9;
49064;PMS5003;34876;51.464;-0.150;2023-02-04T08:10:54;12;12;
49064;PMS5003;34876;51.464;-0.150;2023-02-04T08:13:23;10;9;
49064;PMS5003;34876;51.464;-0.150;2023-02-04T08:15:52;7;7;
49064;PMS5003;34876;51.464;-0.150;2023-02-04T08:18:22;8;8;
49064;PMS5003;34876;51.464;-0.150;2023-02-04T08:20:51;10;9;
49064;PMS5003;34876;51.464;-0.150;2023-02-04T08:23:20;8;8;
49064;PMS5003;34876;51.464;-0.150;2023-02-04T08:25:49;9;8;
49064;PMS5003;34876;51.464;-0.150;2023-02-04T08:28:19;10;8;
49064;PMS5003;34876;51.464;-0.150;2023-02-04T08:30:48;10;9;
49064;PMS5003;34876;51.464;-0.150;2023-02-04T08:33:17;9;9;
49064;PMS5003;34876;51.464;-0.150;2023-02-04T08:35:46;16;11;
49064;PMS5003;34876;51.464;-0.150;2023-02-04T08:38:15;10;9;
49064;PMS5003;34876;51.464;-0.150;2023-02-04T08:40:44;8;8;
49064;PMS5003;34876;51.464;-0.150;2023-02-04T08:43:13;8;8;
49064;PMS5003;34876;51.464;-0.150;2023-02-04T08:45:42;9;7;
49064;PMS5003;34876;51.464;-0.150;2023-02-04T08:48:11;8;8;
49064;PMS5003;34876;51.464;-0.150;2023-02-04T08:50:40;10;10;
49064;PMS5003;34876;51.464;-0.150;2023-02-04T08:53:09;7;7;
49064;PMS5003;34876;51.464;-0.150;2023-02-04T08:55:39;9;9;
49064;PMS5003;34876;51.464;-0.150;2023-02-04T08:58:08;8;8;
49064;PMS5003;34876;51.464;-0.150;2023-02-04T09:00:38;8;6;
49064;PMS5003;34876;51.464;-0.150;2023-02-04T09:03:07;11;10;
49064;PMS5003;34876;51.464;-0.150;2023-02-04T09:05:36;8;8;
49064;PMS5003;34876;51.464;-0.150;2023-02-04T09:08:05;8;8;
49064;PMS5003;34876;51.464;-0.150;2023-02-04T09:10:34;9;9;
49064;PMS5003;34876;51.464;-0.150;2023-02-04T09:13:03;12;12;
49064;PMS5003;34876;51.464;-0.150;2023-02-04T09:15:37;9;9;
49064;PMS5003;34876;51.464;-0.150;2023-02-04T09:18:07;7;7;
49064;PMS5003;34876;51.464;-0.150;2023-02-04T09:20:36;11;9;
49064;PMS5003;34876;51.464;-0.150;2023-02-04T09:23:05;8;8;
49064;PMS5003;34876;51.464;-0.150;2023-02-04T09:25:34;9;9;
49064;PMS5003;34876;51.464;-0.150;2023-02-04T09:28:04;10;9;
49064;PMS5003;34876;51.464;-0.150;2023-02-04T09:30:33;7;7;
49064;PMS5003;34876;51.464;-0.150;2023-02-04T09:33:03;11;10;
49064;PMS5003;34876;51.464;-0.150;2023-02-04T09:35:34;9;8;
49064;PMS5003;34876;51.464;-0.150;2023-02-04T09:38:03;10;9;
49064;PMS5003;34876;51.464;-0.150;2023-02-04T09:40:33;12;10;
49064;PMS5003;34876;51.464;-0.150;2023-02-04T09:43:05;9;9;
49064;PMS5003;34876;51.464;-0.150;2023-02-04T09:45:35;7;7;
49064;PMS5003;34876;51.464;-0.150;2023-02-04T09:48:05;10;9;
49064;PMS5003;34876;51.464;-0.150;2023-02-04T09:50:34;9;9;
49064;PMS5003;34876;51.464;-0.150;2023-02-04T09:53:04;10;8;
49064;PMS5003;34876;51.464;-0.150;2023-02-04T09:55:36;10;10;
49064;PMS5003;34876;51.464;-0.150;2023-02-04T09:58:10;10;9;
49064;PMS5003;34876;51.464;-0.150;2023-02-04T10:00:42;8;8;
49064;PMS5003;34876;51.464;-0.150;2023-02-04T10:03:15;7;7;
49064;PMS5003;34876;51.464;-0.150;2023-02-04T10:05:45;9;9;
49064;PMS5003;34876;51.464;-0.150;2023-02-04T10:08:16;10;10;
49064;PMS5003;34876;51.464;-0.150;2023-02-04T10:10:48;8;8;
49064;PMS5003;34876;51.464;-0.150;2023-02-04T10:13:18;8;8;
49064;PMS5003;34876;51.464;-0.150;2023-02-04T10:15:48;10;10;
49064;PMS5003;34876;51.464;-0.150;2023-02-04T10:18:18;11;11;
49064;PMS5003;34876;51.464;-0.150;2023-02-04T10:20:53;9;9;
49064;PMS5003;34876;51.464;-0.150;2023-02-04T10:23:24;10;10;
49064;PMS5003;34876;51.464;-0.150;2023-02-04T10:25:53;10;10;
49064;PMS5003;34876;51.464;-0.150;2023-02-04T10:28:31;9;8;
49064;PMS5003;34876;51.464;-0.150;2023-02-04T10:31:01;9;9;
49064;PMS5003;34876;51.464;-0.150;2023-02-04T10:33:30;11;9;
49064;PMS5003;34876;51.464;-0.150;2023-02-04T10:36:00;10;10;
49064;PMS5003;34876;51.464;-0.150;2023-02-04T10:38:30;10;9;
49064;PMS5003;34876;51.464;-0.150;2023-02-04T10:41:00;11;11;
49064;PMS5003;34876;51.464;-0.150;2023-02-04T10:43:30;9;8;
49064;PMS5003;34876;51.464;-0.150;2023-02-04T10:46:01;11;10;
49064;PMS5003;34876;51.464;-0.150;2023-02-04T10:48:38;7;7;
49064;PMS5003;34876;51.464;-0.150;2023-02-04T10:51:08;12;10;
49064;PMS5003;34876;51.464;-0.150;2023-02-04T10:53:41;8;8;
49064;PMS5003;34876;51.464;-0.150;2023-02-04T10:56:14;11;9;
49064;PMS5003;34876;51.464;-0.150;2023-02-04T10:58:45;9;9;
49064;PMS5003;34876;51.464;-0.150;2023-02-04T11:01:15;9;9;
49064;PMS5003;34876;51.464;-0.150;2023-02-04T11:03:45;9;8;
49064;PMS5003;34876;51.464;-0.150;2023-02-04T11:06:18;9;9;
49064;PMS5003;34876;51.464;-0.150;2023-02-04T11:08:49;14;13;
49064;PMS5003;34876;51.464;-0.150;2023-02-04T11:11:19;12;11;
49064;PMS5003;34876;51.464;-0.150;2023-02-04T11:13:58;11;9;
49064;PMS5003;34876;51.464;-0.150;2023-02-04T11:16:29;9;9;
49064;PMS5003;34876;51.464;-0.150;2023-02-04T11:19:01;10;10;
49064;PMS5003;34876;51.464;-0.150;2023-02-04T11:21:41;10;10;
49064;PMS5003;34876;51.464;-0.150;2023-02-04T11:24:26;9;9;
49064;PMS5003;34876;51.464;-0.150;2023-02-04T11:27:17;10;9;
49064;PMS5003;34876;51.464;-0.150;2023-02-04T11:29:50;11;11;
49064;PMS5003;34876;51.464;-0.150;2023-02-04T11:32:29;12;11;
49064;PMS5003;34876;51.464;-0.150;2023-02-04T11:35:06;9;9;
49064;PMS5003;34876;51.464;-0.150;2023-02-04T11:37:49;8;8;
49064;PMS5003;34876;51.464;-0.150;2023-02-04T11:40:22;9;8;
49064;PMS5003;34876;51.464;-0.150;2023-02-04T11:42:56;8;8;
49064;PMS5003;34876;51.464;-0.150;2023-02-04T11:45:28;12;10;
49064;PMS5003;34876;51.464;-0.150;2023-02-04T11:48:01;9;8;
49064;PMS5003;34876;51.464;-0.150;2023-02-04T11:50:32;11;9;
49064;PMS5003;34876;51.464;-0.150;2023-02-04T11:53:03;10;10;
49064;PMS5003;34876;51.464;-0.150;2023-02-04T11:55:34;10;10;
49064;PMS5003;34876;51.464;-0.150;2023-02-04T11:58:11;12;11;
49064;PMS5003;34876;51.464;-0.150;2023-02-04T12:00:42;7;7;
49064;PMS5003;34876;51.464;-0.150;2023-02-04T12:03:21;7;7;
49064;PMS5003;34876;51.464;-0.150;2023-02-04T12:05:51;10;10;
49064;PMS5003;34876;51.464;-0.150;2023-02-04T12:08:25;11;11;
49064;PMS5003;34876;51.464;-0.150;2023-02-04T12:11:01;10;9;
49064;PMS5003;34876;51.464;-0.150;2023-02-04T12:13:33;12;11;
49064;PMS5003;34876;51.464;-0.150;2023-02-04T12:16:14;8;8;
49064;PMS5003;34876;51.464;-0.150;2023-02-04T12:18:44;9;7;
49064;PMS5003;34876;51.464;-0.150;2023-02-04T12:21:13;8;8;
49064;PMS5003;34876;51.464;-0.150;2023-02-04T12:23:47;7;7;
49064;PMS5003;34876;51.464;-0.150;2023-02-04T12:26:17;7;7;
49064;PMS5003;34876;51.464;-0.150;2023-02-04T12:28:46;8;7;
49064;PMS5003;34876;51.464;-0.150;2023-02-04T12:31:15;9;8;
49064;PMS5003;34876;51.464;-0.150;2023-02-04T12:33:45;12;10;
49064;PMS5003;34876;51.464;-0.150;2023-02-04T12:36:15;12;9;
49064;PMS5003;34876;51.464;-0.150;2023-02-04T12:38:45;8;7;
49064;PMS5003;34876;51.464;-0.150;2023-02-04T12:41:15;9;8;
49064;PMS5003;34876;51.464;-0.150;2023-02-04T12:43:45;8;8;
49064;PMS5003;34876;51.464;-0.150;2023-02-04T12:46:15;8;8;
49064;PMS5003;34876;51.464;-0.150;2023-02-04T12:48:45;10;8;
49064;PMS5003;34876;51.464;-0.150;2023-02-04T12:51:15;10;8;
49064;PMS5003;34876;51.464;-0.150;2023-02-04T12:53:44;12;10;
49064;PMS5003;34876;51.464;-0.150;2023-02-04T12:56:12;7;7;
49064;PMS5003;34876;51.464;-0.150;2023-02-04T12:58:43;8;8;
49064;PMS5003;34876;51.464;-0.150;2023-02-04T13:01:13;10;6;
49064;PMS5003;34876;51.464;-0.150;2023-02-04T13:03:43;8;8;
49064;PMS5003;34876;51.464;-0.150;2023-02-04T13:06:13;10;9;
49064;PMS5003;34876;51.464;-0.150;2023-02-04T13:08:42;8;7;
49064;PMS5003;34876;51.464;-0.150;2023-02-04T13:11:11;7;7;
49064;PMS5003;34876;51.464;-0.150;2023-02-04T13:13:40;7;7;
49064;PMS5003;34876;51.464;-0.150;2023-02-04T13:16:10;9;9;
49064;PMS5003;34876;51.464;-0.150;2023-02-04T13:18:39;8;8;
49064;PMS5003;34876;51.464;-0.150;2023-02-04T13:21:08;7;6;
49064;PMS5003;34876;51.464;-0.150;2023-02-04T13:23:38;11;9;
49064;PMS5003;34876;51.464;-0.150;2023-02-04T13:26:08;9;8;
49064;PMS5003;34876;51.464;-0.150;2023-02-04T13:28:37;10;8;
49064;PMS5003;34876;51.464;-0.150;2023-02-04T13:31:05;9;8;
49064;PMS5003;34876;51.464;-0.150;2023-02-04T13:33:34;6;6;
49064;PMS5003;34876;51.464;-0.150;2023-02-04T13:36:04;6;6;
49064;PMS5003;34876;51.464;-0.150;2023-02-04T13:38:34;5;5;
49064;PMS5003;34876;51.464;-0.150;2023-02-04T13:41:05;4;4;
49064;PMS5003;34876;51.464;-0.150;2023-02-04T13:43:34;7;6;
49064;PMS5003;34876;51.464;-0.150;2023-02-04T13:46:03;8;8;
49064;PMS5003;34876;51.464;-0.150;2023-02-04T13:48:32;11;11;
49064;PMS5003;34876;51.464;-0.150;2023-02-04T13:51:01;7;7;
49064;PMS5003;34876;51.464;-0.150;2023-02-04T13:53:30;7;7;
49064;PMS5003;34876;51.464;-0.150;2023-02-04T13:55:59;10;9;
49064;PMS5003;34876;51.464;-0.150;2023-02-04T13:58:28;9;9;
49064;PMS5003;34876;51.464;-0.150;2023-02-04T14:00:57;7;6;
49064;PMS5003;34876;51.464;-0.150;2023-02-04T14:03:27;5;5;
49064;PMS5003;34876;51.464;-0.150;2023-02-04T14:05:58;7;7;
49064;PMS5003;34876;51.464;-0.150;2023-02-04T14:08:28;6;6;
49064;PMS5003;34876;51.464;-0.150;2023-02-04T14:10:59;10;7;
49064;PMS5003;34876;51.464;-0.150;2023-02-04T14:13:29;6;6;
49064;PMS5003;34876;51.464;-0.150;2023-02-04T14:15:58;8;6;
49064;PMS5003;34876;51.464;-0.150;2023-02-04T14:18:27;6;6;
49064;PMS5003;34876;51.464;-0.150;2023-02-04T14:20:57;9;8;
49064;PMS5003;34876;51.464;-0.150;2023-02-04T14:23:27;7;7;
49064;PMS5003;34876;51.464;-0.150;2023-02-04T14:25:56;8;8;
49064;PMS5003;34876;51.464;-0.150;2023-02-04T14:28:26;6;6;
49064;PMS5003;34876;51.464;-0.150;2023-02-04T14:30:55;7;7;
49064;PMS5003;34876;51.464;-0.150;2023-02-04T14:33:26;8;7;
49064;PMS5003;34876;51.464;-0.150;2023-02-04T14:35:55;8;8;
49064;PMS5003;34876;51.464;-0.150;2023-02-04T14:38:27;5;5;
49064;PMS5003;34876;51.464;-0.150;2023-02-04T14:40:56;6;6;
49064;PMS5003;34876;51.464;-0.150;2023-02-04T14:43:26;7;7;
49064;PMS5003;34876;51.464;-0.150;2023-02-04T14:45:56;7;7;
49064;PMS5003;34876;51.464;-0.150;2023-02-04T14:48:27;6;5;
49064;PMS5003;34876;51.464;-0.150;2023-02-04T14:50:57;8;7;
49064;PMS5003;34876;51.464;-0.150;2023-02-04T14:53:27;8;8;
49064;PMS5003;34876;51.464;-0.150;2023-02-04T14:55:58;6;6;
49064;PMS5003;34876;51.464;-0.150;2023-02-04T14:58:27;6;5;
49064;PMS5003;34876;51.464;-0.150;2023-02-04T15:00:58;6;6;
49064;PMS5003;34876;51.464;-0.150;2023-02-04T15:03:28;6;6;
49064;PMS5003;34876;51.464;-0.150;2023-02-04T15:05:57;8;7;
49064;PMS5003;34876;51.464;-0.150;2023-02-04T15:08:26;9;9;
49064;PMS5003;34876;51.464;-0.150;2023-02-04T15:10:56;9;8;
49064;PMS5003;34876;51.464;-0.150;2023-02-04T15:13:25;4;4;
49064;PMS5003;34876;51.464;-0.150;2023-02-04T15:15:54;6;6;
49064;PMS5003;34876;51.464;-0.150;2023-02-04T15:18:24;8;7;
49064;PMS5003;34876;51.464;-0.150;2023-02-04T15:20:53;10;7;
49064;PMS5003;34876;51.464;-0.150;2023-02-04T15:23:24;8;7;
49064;PMS5003;34876;51.464;-0.150;2023-02-04T15:25:53;8;7;
49064;PMS5003;34876;51.464;-0.150;2023-02-04T15:28:23;6;6;
49064;PMS5003;34876;51.464;-0.150;2023-02-04T15:30:53;7;7;
49064;PMS5003;34876;51.464;-0.150;2023-02-04T15:33:23;7;7;
49064;PMS5003;34876;51.464;-0.150;2023-02-04T15:35:53;8;8;
49064;PMS5003;34876;51.464;-0.150;2023-02-04T15:38:23;8;8;
49064;PMS5003;34876;51.464;-0.150;2023-02-04T15:40:52;7;7;
49064;PMS5003;34876;51.464;-0.150;2023-02-04T15:43:21;8;7;
49064;PMS5003;34876;51.464;-0.150;2023-02-04T15:45:50;7;7;
49064;PMS5003;34876;51.464;-0.150;2023-02-04T15:48:19;5;5;
49064;PMS5003;34876;51.464;-0.150;2023-02-04T15:50:49;7;7;
49064;PMS5003;34876;51.464;-0.150;2023-02-04T15:53:18;6;6;
49064;PMS5003;34876;51.464;-0.150;2023-02-04T15:55:48;5;5;
49064;PMS5003;34876;51.464;-0.150;2023-02-04T15:58:17;7;7;
49064;PMS5003;34876;51.464;-0.150;2023-02-04T16:00:46;8;7;
49064;PMS5003;34876;51.464;-0.150;2023-02-04T16:03:16;6;6;
49064;PMS5003;34876;51.464;-0.150;2023-02-04T16:05:45;9;8;
49064;PMS5003;34876;51.464;-0.150;2023-02-04T16:08:13;6;5;
49064;PMS5003;34876;51.464;-0.150;2023-02-04T16:10:42;5;5;
49064;PMS5003;34876;51.464;-0.150;2023-02-04T16:13:12;9;8;
49064;PMS5003;34876;51.464;-0.150;2023-02-04T16:15:41;5;5;
49064;PMS5003;34876;51.464;-0.150;2023-02-04T16:18:10;5;5;
49064;PMS5003;34876;51.464;-0.150;2023-02-04T16:20:40;7;6;
49064;PMS5003;34876;51.464;-0.150;2023-02-04T16:23:09;9;8;
49064;PMS5003;34876;51.464;-0.150;2023-02-04T16:25:38;8;7;
49064;PMS5003;34876;51.464;-0.150;2023-02-04T16:28:07;6;6;
49064;PMS5003;34876;51.464;-0.150;2023-02-04T16:30:36;6;6;
49064;PMS5003;34876;51.464;-0.150;2023-02-04T16:33:05;6;6;
49064;PMS5003;34876;51.464;-0.150;2023-02-04T16:35:54;6;5;
49064;PMS5003;34876;51.464;-0.150;2023-02-04T16:38:26;6;6;
49064;PMS5003;34876;51.464;-0.150;2023-02-04T16:40:57;5;5;
49064;PMS5003;34876;51.464;-0.150;2023-02-04T16:43:27;6;5;
49064;PMS5003;34876;51.464;-0.150;2023-02-04T16:45:56;5;5;
49064;PMS5003;34876;51.464;-0.150;2023-02-04T16:48:27;4;4;
49064;PMS5003;34876;51.464;-0.150;2023-02-04T16:50:57;5;5;
49064;PMS5003;34876;51.464;-0.150;2023-02-04T16:53:28;4;4;
49064;PMS5003;34876;51.464;-0.150;2023-02-04T16:55:58;6;6;
49064;PMS5003;34876;51.464;-0.150;2023-02-04T16:58:28;5;5;
49064;PMS5003;34876;51.464;-0.150;2023-02-04T17:00:57;7;6;
49064;PMS5003;34876;51.464;-0.150;2023-02-04T17:03:27;6;6;
49064;PMS5003;34876;51.464;-0.150;2023-02-04T17:05:57;7;7;
49064;PMS5003;34876;51.464;-0.150;2023-02-04T17:08:26;7;6;
49064;PMS5003;34876;51.464;-0.150;2023-02-04T17:10:55;5;4;
49064;PMS5003;34876;51.464;-0.150;2023-02-04T17:13:25;9;7;
49064;PMS5003;34876;51.464;-0.150;2023-02-04T17:15:54;6;6;
49064;PMS5003;34876;51.464;-0.150;2023-02-04T17:18:23;5;5;